sensor_id;sensor_type;location;lat;lon;timestamp;P1;durP1;ratioP1;P2;durP2;ratioP2
58306;SDS011;44116;50.884;4.768;2023-06-14T00:00:43;8.4;;;6.2;;
58306;SDS011;44116;50.884;4.768;2023-06-14T00:06:44;8.9;;;5.8;;
58306;SDS011;44116;50.884;4.768;2023-06-14T00:08:43;9.5;;;6.0;;
58306;SDS011;44116;50.884;4.768;2023-06-14T00:10:43;7.7;;;5.6;;
58306;SDS011;44116;50.884;4.768;2023-06-14T00:12:43;12.0;;;6.0;;
58306;SDS011;44116;50.884;4.768;2023-06-14T00:14:43;8.1;;;5.9;;
58306;SDS011;44116;50.884;4.768;2023-06-14T00:16:43;10.1;;;6.1;;
58306;SDS011;44116;50.884;4.768;2023-06-14T00:18:43;8.6;;;5.9;;
58306;SDS011;44116;50.884;4.768;2023-06-14T00:20:43;8.9;;;6.0;;
58306;SDS011;44116;50.884;4.768;2023-06-14T00:22:43;8.6;;;5.8;;
58306;SDS011;44116;50.884;4.768;2023-06-14T00:24:42;9.7;;;6.0;;
58306;SDS011;44116;50.884;4.768;2023-06-14T00:26:42;9.3;;;6.6;;
58306;SDS011;44116;50.884;4.768;2023-06-14T00:28:42;8.6;;;5.9;;
58306;SDS011;44116;50.884;4.768;2023-06-14T00:30:42;8.4;;;6.3;;
58306;SDS011;44116;50.884;4.768;2023-06-14T00:32:42;10.6;;;5.9;;
58306;SDS011;44116;50.884;4.768;2023-06-14T00:34:42;8.6;;;6.1;;
58306;SDS011;44116;50.884;4.768;2023-06-14T00:38:42;8.2;;;5.9;;
58306;SDS011;44116;50.884;4.768;2023-06-14T00:40:42;8.1;;;6.5;;
58306;SDS011;44116;50.884;4.768;2023-06-14T00:42:42;10.9;;;6.3;;
58306;SDS011;44116;50.884;4.768;2023-06-14T00:44:42;9.7;;;6.5;;
58306;SDS011;44116;50.884;4.768;2023-06-14T00:48:42;10.6;;;6.3;;
58306;SDS011;44116;50.884;4.768;2023-06-14T00:52:42;9.0;;;6.4;;
58306;SDS011;44116;50.884;4.768;2023-06-14T00:56:43;7.3;;;6.2;;
58306;SDS011;44116;50.884;4.768;2023-06-14T00:58:41;9.6;;;6.7;;
58306;SDS011;44116;50.884;4.768;2023-06-14T01:00:41;11.0;;;6.9;;
58306;SDS011;44116;50.884;4.768;2023-06-14T01:02:41;10.7;;;6.4;;
58306;SDS011;44116;50.884;4.768;2023-06-14T01:04:43;9.7;;;6.8;;
58306;SDS011;44116;50.884;4.768;2023-06-14T01:06:57;9.9;;;6.6;;
58306;SDS011;44116;50.884;4.768;2023-06-14T01:08:46;10.4;;;6.5;;
58306;SDS011;44116;50.884;4.768;2023-06-14T01:12:47;8.9;;;6.8;;
58306;SDS011;44116;50.884;4.768;2023-06-14T01:14:41;13.0;;;6.2;;
58306;SDS011;44116;50.884;4.768;2023-06-14T01:16:40;9.0;;;6.6;;
58306;SDS011;44116;50.884;4.768;2023-06-14T01:20:40;11.0;;;6.4;;
58306;SDS011;44116;50.884;4.768;2023-06-14T01:22:50;9.6;;;6.7;;
58306;SDS011;44116;50.884;4.768;2023-06-14T01:24:40;10.7;;;6.8;;
58306;SDS011;44116;50.884;4.768;2023-06-14T01:26:40;10.8;;;6.7;;
58306;SDS011;44116;50.884;4.768;2023-06-14T01:28:40;10.0;;;6.8;;
58306;SDS011;44116;50.884;4.768;2023-06-14T01:30:41;9.0;;;7.1;;
58306;SDS011;44116;50.884;4.768;2023-06-14T01:32:40;10.7;;;6.4;;
58306;SDS011;44116;50.884;4.768;2023-06-14T01:34:40;7.6;;;6.6;;
58306;SDS011;44116;50.884;4.768;2023-06-14T01:36:41;10.3;;;7.0;;
58306;SDS011;44116;50.884;4.768;2023-06-14T01:38:42;10.5;;;6.7;;
58306;SDS011;44116;50.884;4.768;2023-06-14T01:40:40;12.4;;;7.4;;
58306;SDS011;44116;50.884;4.768;2023-06-14T01:42:40;12.9;;;7.5;;
58306;SDS011;44116;50.884;4.768;2023-06-14T01:44:40;10.2;;;7.1;;
58306;SDS011;44116;50.884;4.768;2023-06-14T01:46:40;10.2;;;6.9;;
58306;SDS011;44116;50.884;4.768;2023-06-14T01:48:39;10.2;;;7.1;;
58306;SDS011;44116;50.884;4.768;2023-06-14T01:50:39;13.6;;;6.9;;
58306;SDS011;44116;50.884;4.768;2023-06-14T01:52:38;11.2;;;7.2;;
58306;SDS011;44116;50.884;4.768;2023-06-14T01:54:39;11.7;;;7.5;;
58306;SDS011;44116;50.884;4.768;2023-06-14T01:56:38;11.7;;;7.1;;
58306;SDS011;44116;50.884;4.768;2023-06-14T01:58:38;10.2;;;7.2;;
58306;SDS011;44116;50.884;4.768;2023-06-14T02:00:38;11.0;;;7.5;;
58306;SDS011;44116;50.884;4.768;2023-06-14T02:02:38;11.0;;;7.1;;
58306;SDS011;44116;50.884;4.768;2023-06-14T02:04:38;11.0;;;7.5;;
58306;SDS011;44116;50.884;4.768;2023-06-14T02:08:38;10.4;;;7.3;;
58306;SDS011;44116;50.884;4.768;2023-06-14T02:10:37;12.2;;;7.4;;
58306;SDS011;44116;50.884;4.768;2023-06-14T02:12:37;10.8;;;7.7;;
58306;SDS011;44116;50.884;4.768;2023-06-14T02:14:37;10.1;;;7.8;;
58306;SDS011;44116;50.884;4.768;2023-06-14T02:16:37;10.6;;;8.0;;
58306;SDS011;44116;50.884;4.768;2023-06-14T02:18:37;11.5;;;7.9;;
58306;SDS011;44116;50.884;4.768;2023-06-14T02:22:37;8.9;;;7.6;;
58306;SDS011;44116;50.884;4.768;2023-06-14T02:24:37;13.3;;;7.5;;
58306;SDS011;44116;50.884;4.768;2023-06-14T02:26:36;13.6;;;7.9;;
58306;SDS011;44116;50.884;4.768;2023-06-14T02:28:36;11.4;;;7.7;;
58306;SDS011;44116;50.884;4.768;2023-06-14T02:30:36;13.9;;;7.8;;
58306;SDS011;44116;50.884;4.768;2023-06-14T02:32:36;15.7;;;7.7;;
58306;SDS011;44116;50.884;4.768;2023-06-14T02:34:36;11.5;;;7.5;;
58306;SDS011;44116;50.884;4.768;2023-06-14T02:36:36;11.0;;;8.0;;
58306;SDS011;44116;50.884;4.768;2023-06-14T02:38:36;12.0;;;7.7;;
58306;SDS011;44116;50.884;4.768;2023-06-14T02:40:36;14.1;;;8.0;;
58306;SDS011;44116;50.884;4.768;2023-06-14T02:42:35;11.5;;;7.9;;
58306;SDS011;44116;50.884;4.768;2023-06-14T02:44:35;12.0;;;7.8;;
58306;SDS011;44116;50.884;4.768;2023-06-14T02:46:35;13.2;;;7.9;;
58306;SDS011;44116;50.884;4.768;2023-06-14T02:50:35;10.1;;;7.8;;
58306;SDS011;44116;50.884;4.768;2023-06-14T02:52:35;8.8;;;7.5;;
58306;SDS011;44116;50.884;4.768;2023-06-14T02:54:35;13.6;;;8.3;;
58306;SDS011;44116;50.884;4.768;2023-06-14T02:56:35;10.5;;;7.7;;
58306;SDS011;44116;50.884;4.768;2023-06-14T02:58:36;10.3;;;8.1;;
58306;SDS011;44116;50.884;4.768;2023-06-14T03:00:35;11.5;;;8.2;;
58306;SDS011;44116;50.884;4.768;2023-06-14T03:02:35;14.7;;;8.6;;
58306;SDS011;44116;50.884;4.768;2023-06-14T03:04:34;13.4;;;8.2;;
58306;SDS011;44116;50.884;4.768;2023-06-14T03:06:35;11.2;;;8.5;;
58306;SDS011;44116;50.884;4.768;2023-06-14T03:08:34;14.4;;;8.6;;
58306;SDS011;44116;50.884;4.768;2023-06-14T03:10:34;14.2;;;8.5;;
58306;SDS011;44116;50.884;4.768;2023-06-14T03:12:34;10.5;;;8.1;;
58306;SDS011;44116;50.884;4.768;2023-06-14T03:14:34;12.1;;;8.7;;
58306;SDS011;44116;50.884;4.768;2023-06-14T03:16:34;11.6;;;7.8;;
58306;SDS011;44116;50.884;4.768;2023-06-14T03:18:33;11.5;;;8.7;;
58306;SDS011;44116;50.884;4.768;2023-06-14T03:20:34;11.1;;;8.5;;
58306;SDS011;44116;50.884;4.768;2023-06-14T03:24:33;13.6;;;8.8;;
58306;SDS011;44116;50.884;4.768;2023-06-14T03:26:33;13.9;;;9.0;;
58306;SDS011;44116;50.884;4.768;2023-06-14T03:28:33;13.7;;;8.7;;
58306;SDS011;44116;50.884;4.768;2023-06-14T03:30:33;16.0;;;9.5;;
58306;SDS011;44116;50.884;4.768;2023-06-14T03:32:33;11.3;;;8.8;;
58306;SDS011;44116;50.884;4.768;2023-06-14T03:34:35;13.3;;;8.9;;
58306;SDS011;44116;50.884;4.768;2023-06-14T03:36:32;15.0;;;9.0;;
58306;SDS011;44116;50.884;4.768;2023-06-14T03:42:33;13.7;;;8.9;;
58306;SDS011;44116;50.884;4.768;2023-06-14T03:44:32;10.8;;;9.0;;
58306;SDS011;44116;50.884;4.768;2023-06-14T03:46:32;10.8;;;8.7;;
58306;SDS011;44116;50.884;4.768;2023-06-14T03:50:31;16.6;;;9.1;;
58306;SDS011;44116;50.884;4.768;2023-06-14T03:52:32;12.1;;;8.7;;
58306;SDS011;44116;50.884;4.768;2023-06-14T03:54:31;11.3;;;8.3;;
58306;SDS011;44116;50.884;4.768;2023-06-14T03:56:31;14.5;;;9.0;;
58306;SDS011;44116;50.884;4.768;2023-06-14T03:58:31;12.4;;;8.8;;
58306;SDS011;44116;50.884;4.768;2023-06-14T04:00:31;13.0;;;8.6;;
58306;SDS011;44116;50.884;4.768;2023-06-14T04:02:31;12.8;;;9.2;;
58306;SDS011;44116;50.884;4.768;2023-06-14T04:04:31;13.2;;;9.5;;
58306;SDS011;44116;50.884;4.768;2023-06-14T04:06:30;14.4;;;9.0;;
58306;SDS011;44116;50.884;4.768;2023-06-14T04:08:31;15.1;;;9.2;;
58306;SDS011;44116;50.884;4.768;2023-06-14T04:12:30;15.5;;;9.0;;
58306;SDS011;44116;50.884;4.768;2023-06-14T04:14:30;14.2;;;9.1;;
58306;SDS011;44116;50.884;4.768;2023-06-14T04:16:30;16.8;;;9.9;;
58306;SDS011;44116;50.884;4.768;2023-06-14T04:18:30;12.4;;;9.2;;
58306;SDS011;44116;50.884;4.768;2023-06-14T04:20:30;16.4;;;9.3;;
58306;SDS011;44116;50.884;4.768;2023-06-14T04:22:30;17.2;;;9.5;;
58306;SDS011;44116;50.884;4.768;2023-06-14T04:24:30;14.7;;;9.1;;
58306;SDS011;44116;50.884;4.768;2023-06-14T04:26:29;15.0;;;9.4;;
58306;SDS011;44116;50.884;4.768;2023-06-14T04:28:30;15.8;;;8.8;;
58306;SDS011;44116;50.884;4.768;2023-06-14T04:30:29;12.8;;;9.2;;
58306;SDS011;44116;50.884;4.768;2023-06-14T04:34:29;14.9;;;9.4;;
58306;SDS011;44116;50.884;4.768;2023-06-14T04:36:29;18.4;;;9.2;;
58306;SDS011;44116;50.884;4.768;2023-06-14T04:38:29;13.6;;;8.9;;
58306;SDS011;44116;50.884;4.768;2023-06-14T04:40:29;19.4;;;9.6;;
58306;SDS011;44116;50.884;4.768;2023-06-14T04:42:29;13.4;;;9.0;;
58306;SDS011;44116;50.884;4.768;2023-06-14T04:44:29;13.9;;;8.9;;
58306;SDS011;44116;50.884;4.768;2023-06-14T04:46:28;13.3;;;8.6;;
58306;SDS011;44116;50.884;4.768;2023-06-14T04:48:28;16.1;;;9.3;;
58306;SDS011;44116;50.884;4.768;2023-06-14T04:50:28;13.1;;;9.1;;
58306;SDS011;44116;50.884;4.768;2023-06-14T04:52:28;12.2;;;9.2;;
58306;SDS011;44116;50.884;4.768;2023-06-14T04:56:29;11.5;;;8.9;;
58306;SDS011;44116;50.884;4.768;2023-06-14T04:58:28;13.5;;;9.3;;
58306;SDS011;44116;50.884;4.768;2023-06-14T05:00:28;13.8;;;9.6;;
58306;SDS011;44116;50.884;4.768;2023-06-14T05:02:28;16.5;;;9.4;;
58306;SDS011;44116;50.884;4.768;2023-06-14T05:04:27;14.4;;;9.6;;
58306;SDS011;44116;50.884;4.768;2023-06-14T05:06:28;12.2;;;9.5;;
58306;SDS011;44116;50.884;4.768;2023-06-14T05:08:27;12.0;;;9.2;;
58306;SDS011;44116;50.884;4.768;2023-06-14T05:10:27;14.7;;;9.4;;
58306;SDS011;44116;50.884;4.768;2023-06-14T05:14:27;13.2;;;9.2;;
58306;SDS011;44116;50.884;4.768;2023-06-14T05:16:27;13.9;;;9.7;;
58306;SDS011;44116;50.884;4.768;2023-06-14T05:18:27;15.0;;;9.0;;
58306;SDS011;44116;50.884;4.768;2023-06-14T05:20:27;14.2;;;9.1;;
58306;SDS011;44116;50.884;4.768;2023-06-14T05:22:27;15.2;;;9.4;;
58306;SDS011;44116;50.884;4.768;2023-06-14T05:24:26;14.2;;;9.8;;
58306;SDS011;44116;50.884;4.768;2023-06-14T05:26:27;13.6;;;8.8;;
58306;SDS011;44116;50.884;4.768;2023-06-14T05:28:27;16.1;;;9.2;;
58306;SDS011;44116;50.884;4.768;2023-06-14T05:30:26;15.1;;;10.1;;
58306;SDS011;44116;50.884;4.768;2023-06-14T05:32:26;14.6;;;9.7;;
58306;SDS011;44116;50.884;4.768;2023-06-14T05:34:26;15.5;;;9.2;;
58306;SDS011;44116;50.884;4.768;2023-06-14T05:36:26;13.5;;;8.8;;
58306;SDS011;44116;50.884;4.768;2023-06-14T05:38:26;15.0;;;9.6;;
58306;SDS011;44116;50.884;4.768;2023-06-14T05:40:26;15.9;;;10.2;;
58306;SDS011;44116;50.884;4.768;2023-06-14T05:42:26;17.0;;;9.6;;
58306;SDS011;44116;50.884;4.768;2023-06-14T05:44:25;17.0;;;10.0;;
58306;SDS011;44116;50.884;4.768;2023-06-14T05:46:26;15.1;;;9.6;;
58306;SDS011;44116;50.884;4.768;2023-06-14T05:48:26;18.5;;;9.5;;
58306;SDS011;44116;50.884;4.768;2023-06-14T05:50:25;14.8;;;9.7;;
58306;SDS011;44116;50.884;4.768;2023-06-14T05:52:25;16.7;;;9.8;;
58306;SDS011;44116;50.884;4.768;2023-06-14T05:54:25;15.7;;;9.7;;
58306;SDS011;44116;50.884;4.768;2023-06-14T05:56:25;15.9;;;9.5;;
58306;SDS011;44116;50.884;4.768;2023-06-14T06:00:25;16.1;;;10.1;;
58306;SDS011;44116;50.884;4.768;2023-06-14T06:02:25;12.5;;;9.1;;
58306;SDS011;44116;50.884;4.768;2023-06-14T06:04:25;14.8;;;9.4;;
58306;SDS011;44116;50.884;4.768;2023-06-14T06:06:48;14.5;;;8.8;;
58306;SDS011;44116;50.884;4.768;2023-06-14T06:08:25;15.1;;;9.5;;
58306;SDS011;44116;50.884;4.768;2023-06-14T06:14:24;16.9;;;8.9;;
58306;SDS011;44116;50.884;4.768;2023-06-14T06:16:24;17.5;;;9.1;;
58306;SDS011;44116;50.884;4.768;2023-06-14T06:18:24;18.5;;;9.2;;
58306;SDS011;44116;50.884;4.768;2023-06-14T06:20:24;15.2;;;9.6;;
58306;SDS011;44116;50.884;4.768;2023-06-14T06:22:24;15.4;;;9.1;;
58306;SDS011;44116;50.884;4.768;2023-06-14T06:24:24;13.3;;;8.8;;
58306;SDS011;44116;50.884;4.768;2023-06-14T06:26:25;17.5;;;8.7;;
58306;SDS011;44116;50.884;4.768;2023-06-14T06:28:24;15.4;;;9.4;;
58306;SDS011;44116;50.884;4.768;2023-06-14T06:30:25;14.2;;;9.5;;
58306;SDS011;44116;50.884;4.768;2023-06-14T06:32:35;19.7;;;9.0;;
58306;SDS011;44116;50.884;4.768;2023-06-14T06:34:24;13.7;;;8.1;;
58306;SDS011;44116;50.884;4.768;2023-06-14T06:36:24;14.2;;;8.7;;
58306;SDS011;44116;50.884;4.768;2023-06-14T06:38:24;14.1;;;8.9;;
58306;SDS011;44116;50.884;4.768;2023-06-14T06:40:23;13.0;;;8.3;;
58306;SDS011;44116;50.884;4.768;2023-06-14T06:42:24;14.2;;;9.1;;
58306;SDS011;44116;50.884;4.768;2023-06-14T06:44:33;12.9;;;8.6;;
58306;SDS011;44116;50.884;4.768;2023-06-14T06:46:24;15.7;;;8.7;;
58306;SDS011;44116;50.884;4.768;2023-06-14T06:48:23;14.7;;;8.5;;
58306;SDS011;44116;50.884;4.768;2023-06-14T06:50:23;13.3;;;7.9;;
58306;SDS011;44116;50.884;4.768;2023-06-14T06:52:23;15.0;;;7.8;;
58306;SDS011;44116;50.884;4.768;2023-06-14T06:54:23;15.0;;;7.7;;
58306;SDS011;44116;50.884;4.768;2023-06-14T06:56:23;12.0;;;8.2;;
58306;SDS011;44116;50.884;4.768;2023-06-14T06:58:23;12.3;;;7.9;;
58306;SDS011;44116;50.884;4.768;2023-06-14T07:00:23;15.5;;;8.0;;
58306;SDS011;44116;50.884;4.768;2023-06-14T07:02:23;16.6;;;7.8;;
58306;SDS011;44116;50.884;4.768;2023-06-14T07:04:23;10.9;;;7.4;;
58306;SDS011;44116;50.884;4.768;2023-06-14T07:06:23;19.0;;;8.2;;
58306;SDS011;44116;50.884;4.768;2023-06-14T07:08:23;16.9;;;7.4;;
58306;SDS011;44116;50.884;4.768;2023-06-14T07:10:23;13.5;;;8.2;;
58306;SDS011;44116;50.884;4.768;2023-06-14T07:12:23;18.1;;;7.9;;
58306;SDS011;44116;50.884;4.768;2023-06-14T07:14:23;13.6;;;7.1;;
58306;SDS011;44116;50.884;4.768;2023-06-14T07:16:23;12.1;;;7.5;;
58306;SDS011;44116;50.884;4.768;2023-06-14T07:20:23;11.1;;;7.4;;
58306;SDS011;44116;50.884;4.768;2023-06-14T07:22:23;10.7;;;7.0;;
58306;SDS011;44116;50.884;4.768;2023-06-14T07:24:23;13.0;;;7.5;;
58306;SDS011;44116;50.884;4.768;2023-06-14T07:26:23;11.7;;;6.9;;
58306;SDS011;44116;50.884;4.768;2023-06-14T07:28:22;14.7;;;6.7;;
58306;SDS011;44116;50.884;4.768;2023-06-14T07:30:26;12.2;;;7.4;;
58306;SDS011;44116;50.884;4.768;2023-06-14T07:32:23;13.6;;;7.0;;
58306;SDS011;44116;50.884;4.768;2023-06-14T07:34:23;11.3;;;6.8;;
58306;SDS011;44116;50.884;4.768;2023-06-14T07:36:24;13.0;;;7.2;;
58306;SDS011;44116;50.884;4.768;2023-06-14T07:38:22;12.1;;;7.5;;
58306;SDS011;44116;50.884;4.768;2023-06-14T07:42:23;13.0;;;7.7;;
58306;SDS011;44116;50.884;4.768;2023-06-14T07:44:22;11.5;;;7.2;;
58306;SDS011;44116;50.884;4.768;2023-06-14T07:46:31;12.2;;;7.3;;
58306;SDS011;44116;50.884;4.768;2023-06-14T07:48:22;10.5;;;7.0;;
58306;SDS011;44116;50.884;4.768;2023-06-14T07:50:23;13.4;;;6.9;;
58306;SDS011;44116;50.884;4.768;2023-06-14T07:52:22;11.5;;;7.2;;
58306;SDS011;44116;50.884;4.768;2023-06-14T07:54:22;11.3;;;7.3;;
58306;SDS011;44116;50.884;4.768;2023-06-14T07:56:22;14.9;;;7.4;;
58306;SDS011;44116;50.884;4.768;2023-06-14T07:58:23;13.2;;;7.6;;
58306;SDS011;44116;50.884;4.768;2023-06-14T08:00:22;11.9;;;7.7;;
58306;SDS011;44116;50.884;4.768;2023-06-14T08:02:22;11.8;;;6.9;;
58306;SDS011;44116;50.884;4.768;2023-06-14T08:06:22;12.8;;;7.2;;
58306;SDS011;44116;50.884;4.768;2023-06-14T08:08:22;11.6;;;6.5;;
58306;SDS011;44116;50.884;4.768;2023-06-14T08:10:22;9.8;;;6.9;;
58306;SDS011;44116;50.884;4.768;2023-06-14T08:12:22;11.6;;;7.0;;
58306;SDS011;44116;50.884;4.768;2023-06-14T08:14:22;12.9;;;6.9;;
58306;SDS011;44116;50.884;4.768;2023-06-14T08:16:30;11.9;;;7.2;;
58306;SDS011;44116;50.884;4.768;2023-06-14T08:20:23;15.0;;;7.4;;
58306;SDS011;44116;50.884;4.768;2023-06-14T08:22:22;13.9;;;7.8;;
58306;SDS011;44116;50.884;4.768;2023-06-14T08:24:22;14.1;;;7.4;;
58306;SDS011;44116;50.884;4.768;2023-06-14T08:26:22;19.6;;;7.7;;
58306;SDS011;44116;50.884;4.768;2023-06-14T08:28:24;14.1;;;7.1;;
58306;SDS011;44116;50.884;4.768;2023-06-14T08:30:22;12.2;;;7.5;;
58306;SDS011;44116;50.884;4.768;2023-06-14T08:32:22;11.1;;;7.4;;
58306;SDS011;44116;50.884;4.768;2023-06-14T08:34:22;14.3;;;8.2;;
58306;SDS011;44116;50.884;4.768;2023-06-14T08:36:22;15.6;;;7.4;;
58306;SDS011;44116;50.884;4.768;2023-06-14T08:38:23;11.3;;;6.9;;
58306;SDS011;44116;50.884;4.768;2023-06-14T08:40:23;14.0;;;7.2;;
58306;SDS011;44116;50.884;4.768;2023-06-14T08:42:24;14.1;;;7.5;;
58306;SDS011;44116;50.884;4.768;2023-06-14T08:44:22;14.7;;;7.2;;
58306;SDS011;44116;50.884;4.768;2023-06-14T08:46:25;14.8;;;7.5;;
58306;SDS011;44116;50.884;4.768;2023-06-14T08:48:23;14.1;;;7.2;;
58306;SDS011;44116;50.884;4.768;2023-06-14T08:50:23;13.0;;;7.3;;
58306;SDS011;44116;50.884;4.768;2023-06-14T08:52:23;11.4;;;6.8;;
58306;SDS011;44116;50.884;4.768;2023-06-14T08:54:23;14.8;;;7.3;;
58306;SDS011;44116;50.884;4.768;2023-06-14T08:56:25;15.3;;;7.4;;
58306;SDS011;44116;50.884;4.768;2023-06-14T08:58:23;11.6;;;7.0;;
58306;SDS011;44116;50.884;4.768;2023-06-14T09:00:23;14.5;;;7.4;;
58306;SDS011;44116;50.884;4.768;2023-06-14T09:02:23;14.7;;;7.0;;
58306;SDS011;44116;50.884;4.768;2023-06-14T09:04:23;14.7;;;7.4;;
58306;SDS011;44116;50.884;4.768;2023-06-14T09:06:23;20.8;;;7.1;;
58306;SDS011;44116;50.884;4.768;2023-06-14T09:08:23;12.6;;;6.7;;
58306;SDS011;44116;50.884;4.768;2023-06-14T09:10:23;12.6;;;7.4;;
58306;SDS011;44116;50.884;4.768;2023-06-14T09:12:23;14.3;;;7.1;;
58306;SDS011;44116;50.884;4.768;2023-06-14T09:14:24;13.4;;;6.7;;
58306;SDS011;44116;50.884;4.768;2023-06-14T09:16:23;11.0;;;6.4;;
58306;SDS011;44116;50.884;4.768;2023-06-14T09:20:24;14.4;;;6.6;;
58306;SDS011;44116;50.884;4.768;2023-06-14T09:22:23;12.4;;;6.8;;
58306;SDS011;44116;50.884;4.768;2023-06-14T09:24:24;11.4;;;6.4;;
58306;SDS011;44116;50.884;4.768;2023-06-14T09:26:23;14.2;;;6.6;;
58306;SDS011;44116;50.884;4.768;2023-06-14T09:30:23;11.4;;;6.3;;
58306;SDS011;44116;50.884;4.768;2023-06-14T09:32:24;12.9;;;6.5;;
58306;SDS011;44116;50.884;4.768;2023-06-14T09:34:23;10.4;;;6.1;;
58306;SDS011;44116;50.884;4.768;2023-06-14T09:36:25;10.7;;;6.0;;
58306;SDS011;44116;50.884;4.768;2023-06-14T09:38:24;11.4;;;5.6;;
58306;SDS011;44116;50.884;4.768;2023-06-14T09:44:24;9.9;;;5.8;;
58306;SDS011;44116;50.884;4.768;2023-06-14T09:46:25;8.4;;;5.4;;
58306;SDS011;44116;50.884;4.768;2023-06-14T09:48:23;13.4;;;5.6;;
58306;SDS011;44116;50.884;4.768;2023-06-14T09:50:23;10.7;;;5.3;;
58306;SDS011;44116;50.884;4.768;2023-06-14T09:52:24;8.8;;;5.1;;
58306;SDS011;44116;50.884;4.768;2023-06-14T09:56:27;8.5;;;5.0;;
58306;SDS011;44116;50.884;4.768;2023-06-14T09:58:26;8.0;;;5.1;;
58306;SDS011;44116;50.884;4.768;2023-06-14T10:00:25;8.6;;;5.0;;
58306;SDS011;44116;50.884;4.768;2023-06-14T10:02:26;10.7;;;5.3;;
58306;SDS011;44116;50.884;4.768;2023-06-14T10:04:25;13.5;;;5.1;;
58306;SDS011;44116;50.884;4.768;2023-06-14T10:06:25;10.4;;;5.3;;
58306;SDS011;44116;50.884;4.768;2023-06-14T10:08:27;10.3;;;5.1;;
58306;SDS011;44116;50.884;4.768;2023-06-14T10:10:24;8.7;;;5.5;;
58306;SDS011;44116;50.884;4.768;2023-06-14T10:12:25;8.2;;;4.2;;
58306;SDS011;44116;50.884;4.768;2023-06-14T10:14:26;10.0;;;4.9;;
58306;SDS011;44116;50.884;4.768;2023-06-14T10:16:30;8.1;;;4.8;;
58306;SDS011;44116;50.884;4.768;2023-06-14T10:18:32;12.9;;;5.4;;
58306;SDS011;44116;50.884;4.768;2023-06-14T10:20:30;11.2;;;5.1;;
58306;SDS011;44116;50.884;4.768;2023-06-14T10:22:32;8.0;;;5.2;;
58306;SDS011;44116;50.884;4.768;2023-06-14T10:24:29;11.7;;;5.3;;
58306;SDS011;44116;50.884;4.768;2023-06-14T10:26:24;9.5;;;5.1;;
58306;SDS011;44116;50.884;4.768;2023-06-14T10:28:24;9.8;;;5.2;;
58306;SDS011;44116;50.884;4.768;2023-06-14T10:30:25;12.7;;;5.5;;
58306;SDS011;44116;50.884;4.768;2023-06-14T10:34:25;8.9;;;4.7;;
58306;SDS011;44116;50.884;4.768;2023-06-14T10:36:27;11.2;;;4.9;;
58306;SDS011;44116;50.884;4.768;2023-06-14T10:40:33;10.0;;;4.7;;
58306;SDS011;44116;50.884;4.768;2023-06-14T10:42:28;7.7;;;4.5;;
58306;SDS011;44116;50.884;4.768;2023-06-14T10:44:33;10.5;;;4.3;;
58306;SDS011;44116;50.884;4.768;2023-06-14T10:46:29;12.8;;;4.5;;
58306;SDS011;44116;50.884;4.768;2023-06-14T10:50:28;11.4;;;4.7;;
58306;SDS011;44116;50.884;4.768;2023-06-14T10:52:27;8.3;;;4.2;;
58306;SDS011;44116;50.884;4.768;2023-06-14T10:54:27;10.4;;;4.3;;
58306;SDS011;44116;50.884;4.768;2023-06-14T10:56:27;8.0;;;4.4;;
58306;SDS011;44116;50.884;4.768;2023-06-14T11:00:27;6.0;;;3.8;;
58306;SDS011;44116;50.884;4.768;2023-06-14T11:02:45;9.8;;;4.2;;
58306;SDS011;44116;50.884;4.768;2023-06-14T11:04:39;6.9;;;3.7;;
58306;SDS011;44116;50.884;4.768;2023-06-14T11:06:31;10.6;;;4.3;;
58306;SDS011;44116;50.884;4.768;2023-06-14T11:10:35;9.0;;;4.4;;
58306;SDS011;44116;50.884;4.768;2023-06-14T11:12:27;8.4;;;4.3;;
58306;SDS011;44116;50.884;4.768;2023-06-14T11:16:26;6.5;;;4.3;;
58306;SDS011;44116;50.884;4.768;2023-06-14T11:18:26;9.3;;;4.7;;
58306;SDS011;44116;50.884;4.768;2023-06-14T11:20:27;8.5;;;4.1;;
58306;SDS011;44116;50.884;4.768;2023-06-14T11:22:26;11.3;;;4.4;;
58306;SDS011;44116;50.884;4.768;2023-06-14T11:24:26;9.1;;;4.3;;
58306;SDS011;44116;50.884;4.768;2023-06-14T11:26:27;7.3;;;3.9;;
58306;SDS011;44116;50.884;4.768;2023-06-14T11:28:36;7.2;;;4.1;;
58306;SDS011;44116;50.884;4.768;2023-06-14T11:30:26;6.3;;;4.3;;
58306;SDS011;44116;50.884;4.768;2023-06-14T11:34:27;9.0;;;4.7;;
58306;SDS011;44116;50.884;4.768;2023-06-14T11:36:34;8.9;;;4.0;;
58306;SDS011;44116;50.884;4.768;2023-06-14T11:38:26;8.2;;;4.4;;
58306;SDS011;44116;50.884;4.768;2023-06-14T11:40:27;9.0;;;3.9;;
58306;SDS011;44116;50.884;4.768;2023-06-14T11:42:27;9.4;;;4.3;;
58306;SDS011;44116;50.884;4.768;2023-06-14T11:46:27;9.1;;;4.5;;
58306;SDS011;44116;50.884;4.768;2023-06-14T11:48:36;7.4;;;4.2;;
58306;SDS011;44116;50.884;4.768;2023-06-14T11:50:27;8.0;;;4.1;;
58306;SDS011;44116;50.884;4.768;2023-06-14T11:52:27;9.8;;;4.2;;
58306;SDS011;44116;50.884;4.768;2023-06-14T11:54:27;7.9;;;3.8;;
58306;SDS011;44116;50.884;4.768;2023-06-14T11:56:27;6.7;;;4.1;;
58306;SDS011;44116;50.884;4.768;2023-06-14T11:58:29;7.8;;;3.9;;
58306;SDS011;44116;50.884;4.768;2023-06-14T12:00:27;7.7;;;3.5;;
58306;SDS011;44116;50.884;4.768;2023-06-14T12:02:31;11.8;;;3.8;;
58306;SDS011;44116;50.884;4.768;2023-06-14T12:04:29;9.9;;;3.7;;
58306;SDS011;44116;50.884;4.768;2023-06-14T12:06:29;9.4;;;3.8;;
58306;SDS011;44116;50.884;4.768;2023-06-14T12:08:32;8.5;;;3.9;;
58306;SDS011;44116;50.884;4.768;2023-06-14T12:10:28;9.1;;;3.5;;
58306;SDS011;44116;50.884;4.768;2023-06-14T12:12:28;5.6;;;3.3;;
58306;SDS011;44116;50.884;4.768;2023-06-14T12:14:28;8.4;;;3.4;;
58306;SDS011;44116;50.884;4.768;2023-06-14T12:18:32;7.7;;;3.3;;
58306;SDS011;44116;50.884;4.768;2023-06-14T12:22:28;7.4;;;3.2;;
58306;SDS011;44116;50.884;4.768;2023-06-14T12:26:28;9.8;;;3.3;;
58306;SDS011;44116;50.884;4.768;2023-06-14T12:28:31;10.9;;;3.6;;
58306;SDS011;44116;50.884;4.768;2023-06-14T12:30:29;9.9;;;3.4;;
58306;SDS011;44116;50.884;4.768;2023-06-14T12:32:29;4.9;;;3.1;;
58306;SDS011;44116;50.884;4.768;2023-06-14T12:34:29;5.2;;;3.2;;
58306;SDS011;44116;50.884;4.768;2023-06-14T12:36:29;7.2;;;3.4;;
58306;SDS011;44116;50.884;4.768;2023-06-14T12:38:29;10.8;;;3.3;;
58306;SDS011;44116;50.884;4.768;2023-06-14T12:42:29;9.7;;;3.5;;
58306;SDS011;44116;50.884;4.768;2023-06-14T12:44:29;10.0;;;3.2;;
58306;SDS011;44116;50.884;4.768;2023-06-14T12:46:30;6.3;;;3.3;;
58306;SDS011;44116;50.884;4.768;2023-06-14T12:48:29;7.9;;;2.9;;
58306;SDS011;44116;50.884;4.768;2023-06-14T12:52:30;7.7;;;3.1;;
58306;SDS011;44116;50.884;4.768;2023-06-14T12:54:30;5.8;;;2.7;;
58306;SDS011;44116;50.884;4.768;2023-06-14T12:56:30;7.9;;;2.5;;
58306;SDS011;44116;50.884;4.768;2023-06-14T12:58:30;6.8;;;2.6;;
58306;SDS011;44116;50.884;4.768;2023-06-14T13:00:31;5.4;;;2.7;;
58306;SDS011;44116;50.884;4.768;2023-06-14T13:02:30;4.7;;;2.4;;
58306;SDS011;44116;50.884;4.768;2023-06-14T13:04:30;5.2;;;2.5;;
58306;SDS011;44116;50.884;4.768;2023-06-14T13:06:30;5.5;;;2.3;;
58306;SDS011;44116;50.884;4.768;2023-06-14T13:10:30;3.5;;;2.2;;
58306;SDS011;44116;50.884;4.768;2023-06-14T13:12:31;6.0;;;2.0;;
58306;SDS011;44116;50.884;4.768;2023-06-14T13:16:31;4.9;;;2.1;;
58306;SDS011;44116;50.884;4.768;2023-06-14T13:18:31;5.5;;;2.2;;
58306;SDS011;44116;50.884;4.768;2023-06-14T13:20:31;4.7;;;2.1;;
58306;SDS011;44116;50.884;4.768;2023-06-14T13:22:31;3.0;;;1.9;;
58306;SDS011;44116;50.884;4.768;2023-06-14T13:24:31;4.9;;;2.3;;
58306;SDS011;44116;50.884;4.768;2023-06-14T13:26:32;4.9;;;1.9;;
58306;SDS011;44116;50.884;4.768;2023-06-14T13:28:32;4.0;;;2.0;;
58306;SDS011;44116;50.884;4.768;2023-06-14T13:32:31;5.9;;;1.9;;
58306;SDS011;44116;50.884;4.768;2023-06-14T13:34:32;5.8;;;2.1;;
58306;SDS011;44116;50.884;4.768;2023-06-14T13:36:32;6.2;;;1.9;;
58306;SDS011;44116;50.884;4.768;2023-06-14T13:38:32;7.5;;;2.2;;
58306;SDS011;44116;50.884;4.768;2023-06-14T13:42:32;6.8;;;2.1;;
58306;SDS011;44116;50.884;4.768;2023-06-14T13:44:32;5.4;;;2.0;;
58306;SDS011;44116;50.884;4.768;2023-06-14T13:46:32;5.6;;;2.3;;
58306;SDS011;44116;50.884;4.768;2023-06-14T13:48:32;4.3;;;2.0;;
58306;SDS011;44116;50.884;4.768;2023-06-14T13:50:33;4.9;;;1.9;;
58306;SDS011;44116;50.884;4.768;2023-06-14T13:52:33;5.1;;;2.0;;